sensor_id;sensor_type;location;lat;lon;timestamp;P1;durP1;ratioP1;P2;durP2;ratioP2
81160;SDS011;70637;48.514;14.500;2024-01-15T00:02:13;11.20;;;7.45;;
81160;SDS011;70637;48.514;14.500;2024-01-15T00:04:39;11.70;;;7.57;;
81160;SDS011;70637;48.514;14.500;2024-01-15T00:07:06;11.65;;;7.75;;
81160;SDS011;70637;48.514;14.500;2024-01-15T00:09:32;9.85;;;6.93;;
81160;SDS011;70637;48.514;14.500;2024-01-15T00:11:59;10.82;;;6.82;;
81160;SDS011;70637;48.514;14.500;2024-01-15T00:14:25;10.50;;;7.38;;
81160;SDS011;70637;48.514;14.500;2024-01-15T00:16:50;10.18;;;7.35;;
81160;SDS011;70637;48.514;14.500;2024-01-15T00:19:17;11.57;;;7.88;;
81160;SDS011;70637;48.514;14.500;2024-01-15T00:21:43;10.35;;;6.88;;
81160;SDS011;70637;48.514;14.500;2024-01-15T00:24:09;10.43;;;7.03;;
81160;SDS011;70637;48.514;14.500;2024-01-15T00:26:35;10.50;;;7.28;;
81160;SDS011;70637;48.514;14.500;2024-01-15T00:29:02;10.15;;;6.97;;
81160;SDS011;70637;48.514;14.500;2024-01-15T00:31:28;10.95;;;6.82;;
81160;SDS011;70637;48.514;14.500;2024-01-15T00:33:55;9.70;;;6.72;;
81160;SDS011;70637;48.514;14.500;2024-01-15T00:36:20;8.68;;;6.63;;
81160;SDS011;70637;48.514;14.500;2024-01-15T00:38:46;9.98;;;7.03;;
81160;SDS011;70637;48.514;14.500;2024-01-15T00:41:12;9.38;;;6.53;;
81160;SDS011;70637;48.514;14.500;2024-01-15T00:43:38;9.98;;;6.47;;
81160;SDS011;70637;48.514;14.500;2024-01-15T00:46:04;9.10;;;6.82;;
81160;SDS011;70637;48.514;14.500;2024-01-15T00:48:30;9.52;;;6.65;;
81160;SDS011;70637;48.514;14.500;2024-01-15T00:50:57;8.73;;;6.38;;
81160;SDS011;70637;48.514;14.500;2024-01-15T00:53:23;9.18;;;6.40;;
81160;SDS011;70637;48.514;14.500;2024-01-15T00:55:50;8.52;;;6.15;;
81160;SDS011;70637;48.514;14.500;2024-01-15T00:58:15;8.85;;;5.90;;
81160;SDS011;70637;48.514;14.500;2024-01-15T01:00:41;9.40;;;6.43;;
81160;SDS011;70637;48.514;14.500;2024-01-15T01:03:07;8.27;;;5.97;;
81160;SDS011;70637;48.514;14.500;2024-01-15T01:05:34;8.68;;;6.20;;
81160;SDS011;70637;48.514;14.500;2024-01-15T01:07:59;8.55;;;6.20;;
81160;SDS011;70637;48.514;14.500;2024-01-15T01:10:25;9.63;;;6.18;;
81160;SDS011;70637;48.514;14.500;2024-01-15T01:12:51;8.20;;;5.60;;
81160;SDS011;70637;48.514;14.500;2024-01-15T01:15:17;8.25;;;5.82;;
81160;SDS011;70637;48.514;14.500;2024-01-15T01:17:43;9.38;;;6.13;;
81160;SDS011;70637;48.514;14.500;2024-01-15T01:20:08;8.07;;;5.93;;
81160;SDS011;70637;48.514;14.500;2024-01-15T01:22:35;8.43;;;5.57;;
81160;SDS011;70637;48.514;14.500;2024-01-15T01:25:01;8.57;;;6.15;;
81160;SDS011;70637;48.514;14.500;2024-01-15T01:27:27;9.70;;;6.38;;
81160;SDS011;70637;48.514;14.500;2024-01-15T01:29:53;8.07;;;5.70;;
81160;SDS011;70637;48.514;14.500;2024-01-15T01:32:19;7.03;;;5.32;;
81160;SDS011;70637;48.514;14.500;2024-01-15T01:34:45;7.88;;;5.53;;
81160;SDS011;70637;48.514;14.500;2024-01-15T01:37:11;8.02;;;5.65;;
81160;SDS011;70637;48.514;14.500;2024-01-15T01:39:40;8.10;;;5.40;;
81160;SDS011;70637;48.514;14.500;2024-01-15T01:42:06;7.75;;;5.68;;
81160;SDS011;70637;48.514;14.500;2024-01-15T01:44:32;7.68;;;5.68;;
81160;SDS011;70637;48.514;14.500;2024-01-15T01:46:58;8.02;;;5.70;;
81160;SDS011;70637;48.514;14.500;2024-01-15T01:49:25;7.43;;;5.03;;
81160;SDS011;70637;48.514;14.500;2024-01-15T01:51:57;7.75;;;5.00;;
81160;SDS011;70637;48.514;14.500;2024-01-15T01:54:28;6.82;;;5.10;;
81160;SDS011;70637;48.514;14.500;2024-01-15T01:56:56;8.05;;;5.55;;
81160;SDS011;70637;48.514;14.500;2024-01-15T01:59:22;7.55;;;5.53;;
81160;SDS011;70637;48.514;14.500;2024-01-15T02:01:50;6.18;;;4.60;;
81160;SDS011;70637;48.514;14.500;2024-01-15T02:04:17;7.75;;;5.25;;
81160;SDS011;70637;48.514;14.500;2024-01-15T02:06:44;7.00;;;5.07;;
81160;SDS011;70637;48.514;14.500;2024-01-15T02:09:10;6.63;;;4.95;;
81160;SDS011;70637;48.514;14.500;2024-01-15T02:11:39;7.38;;;5.28;;
81160;SDS011;70637;48.514;14.500;2024-01-15T02:14:06;7.57;;;5.15;;
81160;SDS011;70637;48.514;14.500;2024-01-15T02:16:31;7.85;;;5.22;;
81160;SDS011;70637;48.514;14.500;2024-01-15T02:18:57;7.47;;;5.45;;
81160;SDS011;70637;48.514;14.500;2024-01-15T02:21:23;7.88;;;4.97;;
81160;SDS011;70637;48.514;14.500;2024-01-15T02:23:48;6.88;;;4.97;;
81160;SDS011;70637;48.514;14.500;2024-01-15T02:26:14;6.60;;;4.82;;
81160;SDS011;70637;48.514;14.500;2024-01-15T02:28:39;7.78;;;5.30;;
81160;SDS011;70637;48.514;14.500;2024-01-15T02:31:06;6.50;;;5.05;;
81160;SDS011;70637;48.514;14.500;2024-01-15T02:33:32;6.50;;;4.95;;
81160;SDS011;70637;48.514;14.500;2024-01-15T02:36:00;7.05;;;5.03;;
81160;SDS011;70637;48.514;14.500;2024-01-15T02:38:25;6.55;;;4.63;;
81160;SDS011;70637;48.514;14.500;2024-01-15T02:40:51;6.30;;;4.78;;
81160;SDS011;70637;48.514;14.500;2024-01-15T02:43:16;7.53;;;5.50;;
81160;SDS011;70637;48.514;14.500;2024-01-15T02:45:44;7.68;;;5.03;;
81160;SDS011;70637;48.514;14.500;2024-01-15T02:48:10;6.22;;;4.22;;
81160;SDS011;70637;48.514;14.500;2024-01-15T02:50:35;6.40;;;4.55;;
81160;SDS011;70637;48.514;14.500;2024-01-15T02:53:01;5.82;;;4.57;;
81160;SDS011;70637;48.514;14.500;2024-01-15T02:55:27;6.75;;;4.47;;
81160;SDS011;70637;48.514;14.500;2024-01-15T02:57:54;6.50;;;4.75;;
81160;SDS011;70637;48.514;14.500;2024-01-15T03:00:20;6.65;;;4.63;;
81160;SDS011;70637;48.514;14.500;2024-01-15T03:02:45;5.97;;;4.30;;
81160;SDS011;70637;48.514;14.500;2024-01-15T03:05:11;6.28;;;4.35;;
81160;SDS011;70637;48.514;14.500;2024-01-15T03:07:37;5.78;;;4.25;;
81160;SDS011;70637;48.514;14.500;2024-01-15T03:10:03;6.40;;;4.70;;
81160;SDS011;70637;48.514;14.500;2024-01-15T03:12:30;6.45;;;4.20;;
81160;SDS011;70637;48.514;14.500;2024-01-15T03:14:56;6.18;;;4.47;;
81160;SDS011;70637;48.514;14.500;2024-01-15T03:17:22;5.68;;;4.18;;
81160;SDS011;70637;48.514;14.500;2024-01-15T03:19:48;6.07;;;4.50;;
81160;SDS011;70637;48.514;14.500;2024-01-15T03:22:14;6.53;;;4.55;;
81160;SDS011;70637;48.514;14.500;2024-01-15T03:24:41;6.30;;;3.90;;
81160;SDS011;70637;48.514;14.500;2024-01-15T03:27:06;5.80;;;4.20;;
81160;SDS011;70637;48.514;14.500;2024-01-15T03:29:32;5.75;;;4.07;;
81160;SDS011;70637;48.514;14.500;2024-01-15T03:31:58;5.72;;;3.97;;
81160;SDS011;70637;48.514;14.500;2024-01-15T03:34:24;6.00;;;4.53;;
81160;SDS011;70637;48.514;14.500;2024-01-15T03:36:49;5.07;;;3.63;;
81160;SDS011;70637;48.514;14.500;2024-01-15T03:39:15;6.25;;;4.60;;
81160;SDS011;70637;48.514;14.500;2024-01-15T03:41:41;5.95;;;4.22;;
81160;SDS011;70637;48.514;14.500;2024-01-15T03:44:06;5.60;;;4.10;;
81160;SDS011;70637;48.514;14.500;2024-01-15T03:46:32;5.85;;;4.32;;
81160;SDS011;70637;48.514;14.500;2024-01-15T03:48:57;5.38;;;3.92;;
81160;SDS011;70637;48.514;14.500;2024-01-15T03:51:23;5.45;;;3.95;;
81160;SDS011;70637;48.514;14.500;2024-01-15T03:53:49;6.07;;;4.30;;
81160;SDS011;70637;48.514;14.500;2024-01-15T03:56:15;4.93;;;3.95;;
81160;SDS011;70637;48.514;14.500;2024-01-15T03:58:41;5.55;;;3.75;;
81160;SDS011;70637;48.514;14.500;2024-01-15T04:01:09;5.88;;;4.00;;
81160;SDS011;70637;48.514;14.500;2024-01-15T04:03:35;4.90;;;3.63;;
81160;SDS011;70637;48.514;14.500;2024-01-15T04:06:01;5.18;;;3.72;;
81160;SDS011;70637;48.514;14.500;2024-01-15T04:08:28;6.70;;;3.90;;
81160;SDS011;70637;48.514;14.500;2024-01-15T04:10:53;5.65;;;3.70;;
81160;SDS011;70637;48.514;14.500;2024-01-15T04:13:20;5.50;;;3.85;;
81160;SDS011;70637;48.514;14.500;2024-01-15T04:15:45;4.80;;;3.38;;
81160;SDS011;70637;48.514;14.500;2024-01-15T04:18:11;5.47;;;3.63;;
81160;SDS011;70637;48.514;14.500;2024-01-15T04:20:37;4.72;;;3.30;;
81160;SDS011;70637;48.514;14.500;2024-01-15T04:23:03;4.35;;;3.35;;
81160;SDS011;70637;48.514;14.500;2024-01-15T04:25:29;4.80;;;3.58;;
81160;SDS011;70637;48.514;14.500;2024-01-15T04:27:55;5.35;;;3.58;;
81160;SDS011;70637;48.514;14.500;2024-01-15T04:30:20;6.07;;;3.58;;
81160;SDS011;70637;48.514;14.500;2024-01-15T04:32:46;5.18;;;3.63;;
81160;SDS011;70637;48.514;14.500;2024-01-15T04:35:11;5.53;;;3.63;;
81160;SDS011;70637;48.514;14.500;2024-01-15T04:37:37;6.07;;;3.42;;
81160;SDS011;70637;48.514;14.500;2024-01-15T04:40:04;5.03;;;3.17;;
81160;SDS011;70637;48.514;14.500;2024-01-15T04:42:31;5.47;;;3.60;;
81160;SDS011;70637;48.514;14.500;2024-01-15T04:44:56;4.78;;;3.42;;
81160;SDS011;70637;48.514;14.500;2024-01-15T04:47:22;4.40;;;3.50;;
81160;SDS011;70637;48.514;14.500;2024-01-15T04:49:47;5.40;;;3.58;;
81160;SDS011;70637;48.514;14.500;2024-01-15T04:52:14;4.93;;;3.40;;
81160;SDS011;70637;48.514;14.500;2024-01-15T04:54:39;5.18;;;3.47;;
81160;SDS011;70637;48.514;14.500;2024-01-15T04:57:05;4.68;;;3.47;;
81160;SDS011;70637;48.514;14.500;2024-01-15T04:59:31;4.53;;;3.33;;
81160;SDS011;70637;48.514;14.500;2024-01-15T05:01:56;5.15;;;3.17;;
81160;SDS011;70637;48.514;14.500;2024-01-15T05:04:22;4.82;;;3.33;;
81160;SDS011;70637;48.514;14.500;2024-01-15T05:06:49;4.80;;;3.47;;
81160;SDS011;70637;48.514;14.500;2024-01-15T05:09:15;5.70;;;3.45;;
81160;SDS011;70637;48.514;14.500;2024-01-15T05:11:42;4.40;;;3.00;;
81160;SDS011;70637;48.514;14.500;2024-01-15T05:14:08;4.13;;;2.85;;
81160;SDS011;70637;48.514;14.500;2024-01-15T05:16:34;5.40;;;3.63;;
81160;SDS011;70637;48.514;14.500;2024-01-15T05:18:59;5.15;;;3.45;;
81160;SDS011;70637;48.514;14.500;2024-01-15T05:21:25;4.63;;;3.53;;
81160;SDS011;70637;48.514;14.500;2024-01-15T05:23:51;4.90;;;3.22;;
81160;SDS011;70637;48.514;14.500;2024-01-15T05:26:16;5.05;;;3.53;;
81160;SDS011;70637;48.514;14.500;2024-01-15T05:28:42;5.47;;;3.30;;
81160;SDS011;70637;48.514;14.500;2024-01-15T05:31:08;5.13;;;3.70;;
81160;SDS011;70637;48.514;14.500;2024-01-15T05:33:34;4.60;;;3.28;;
81160;SDS011;70637;48.514;14.500;2024-01-15T05:36:00;5.22;;;3.70;;
81160;SDS011;70637;48.514;14.500;2024-01-15T05:38:26;4.28;;;3.10;;
81160;SDS011;70637;48.514;14.500;2024-01-15T05:40:52;4.95;;;3.20;;
81160;SDS011;70637;48.514;14.500;2024-01-15T05:43:18;4.25;;;3.20;;
81160;SDS011;70637;48.514;14.500;2024-01-15T05:45:44;4.25;;;2.90;;
81160;SDS011;70637;48.514;14.500;2024-01-15T05:48:10;5.57;;;3.40;;
81160;SDS011;70637;48.514;14.500;2024-01-15T05:50:36;4.32;;;3.00;;
81160;SDS011;70637;48.514;14.500;2024-01-15T05:53:02;5.85;;;3.42;;
81160;SDS011;70637;48.514;14.500;2024-01-15T05:55:28;8.63;;;3.63;;
81160;SDS011;70637;48.514;14.500;2024-01-15T05:57:54;6.72;;;3.40;;
81160;SDS011;70637;48.514;14.500;2024-01-15T06:00:20;5.45;;;3.20;;
81160;SDS011;70637;48.514;14.500;2024-01-15T06:02:45;5.40;;;3.38;;
81160;SDS011;70637;48.514;14.500;2024-01-15T06:05:11;5.40;;;3.58;;
81160;SDS011;70637;48.514;14.500;2024-01-15T06:07:37;7.72;;;3.70;;
81160;SDS011;70637;48.514;14.500;2024-01-15T06:10:03;9.70;;;4.85;;
81160;SDS011;70637;48.514;14.500;2024-01-15T06:12:29;14.95;;;5.90;;
81160;SDS011;70637;48.514;14.500;2024-01-15T06:14:55;15.82;;;6.18;;
81160;SDS011;70637;48.514;14.500;2024-01-15T06:17:21;20.80;;;8.10;;
81160;SDS011;70637;48.514;14.500;2024-01-15T06:19:46;21.00;;;7.95;;
81160;SDS011;70637;48.514;14.500;2024-01-15T06:22:12;20.88;;;7.57;;
81160;SDS011;70637;48.514;14.500;2024-01-15T06:24:38;23.90;;;8.85;;
81160;SDS011;70637;48.514;14.500;2024-01-15T06:27:03;24.67;;;9.23;;
81160;SDS011;70637;48.514;14.500;2024-01-15T06:29:29;27.25;;;9.48;;
81160;SDS011;70637;48.514;14.500;2024-01-15T06:31:55;25.40;;;8.50;;
81160;SDS011;70637;48.514;14.500;2024-01-15T06:34:20;21.20;;;9.07;;
81160;SDS011;70637;48.514;14.500;2024-01-15T06:36:46;20.73;;;8.10;;
81160;SDS011;70637;48.514;14.500;2024-01-15T06:39:12;21.00;;;7.60;;
81160;SDS011;70637;48.514;14.500;2024-01-15T06:41:37;24.23;;;8.30;;
81160;SDS011;70637;48.514;14.500;2024-01-15T06:46:36;22.08;;;7.65;;
81160;SDS011;70637;48.514;14.500;2024-01-15T06:49:02;21.90;;;7.45;;
81160;SDS011;70637;48.514;14.500;2024-01-15T06:51:29;22.27;;;8.57;;
81160;SDS011;70637;48.514;14.500;2024-01-15T06:53:54;20.52;;;7.50;;
81160;SDS011;70637;48.514;14.500;2024-01-15T06:56:20;25.02;;;7.82;;
81160;SDS011;70637;48.514;14.500;2024-01-15T06:58:45;24.45;;;8.52;;
81160;SDS011;70637;48.514;14.500;2024-01-15T07:01:11;22.65;;;8.23;;
81160;SDS011;70637;48.514;14.500;2024-01-15T07:03:37;28.45;;;8.77;;
81160;SDS011;70637;48.514;14.500;2024-01-15T07:06:03;24.00;;;7.85;;
81160;SDS011;70637;48.514;14.500;2024-01-15T07:08:29;22.55;;;8.15;;
81160;SDS011;70637;48.514;14.500;2024-01-15T07:10:55;23.33;;;8.10;;
81160;SDS011;70637;48.514;14.500;2024-01-15T07:13:20;20.75;;;7.43;;
81160;SDS011;70637;48.514;14.500;2024-01-15T07:15:46;20.30;;;7.22;;
81160;SDS011;70637;48.514;14.500;2024-01-15T07:18:12;25.02;;;8.18;;
81160;SDS011;70637;48.514;14.500;2024-01-15T07:20:37;19.65;;;7.85;;
81160;SDS011;70637;48.514;14.500;2024-01-15T07:23:03;20.23;;;7.82;;
81160;SDS011;70637;48.514;14.500;2024-01-15T07:25:29;18.55;;;7.10;;
81160;SDS011;70637;48.514;14.500;2024-01-15T07:27:55;20.85;;;8.30;;
81160;SDS011;70637;48.514;14.500;2024-01-15T07:30:20;20.90;;;7.85;;
81160;SDS011;70637;48.514;14.500;2024-01-15T07:32:47;20.98;;;7.07;;
81160;SDS011;70637;48.514;14.500;2024-01-15T07:35:13;22.67;;;7.75;;
81160;SDS011;70637;48.514;14.500;2024-01-15T07:37:42;21.13;;;7.60;;
81160;SDS011;70637;48.514;14.500;2024-01-15T07:40:07;18.88;;;7.38;;
81160;SDS011;70637;48.514;14.500;2024-01-15T07:42:34;17.83;;;6.65;;
81160;SDS011;70637;48.514;14.500;2024-01-15T07:45:00;19.98;;;7.60;;
81160;SDS011;70637;48.514;14.500;2024-01-15T07:47:26;16.30;;;6.72;;
81160;SDS011;70637;48.514;14.500;2024-01-15T07:49:52;19.65;;;6.57;;
81160;SDS011;70637;48.514;14.500;2024-01-15T07:52:18;21.92;;;7.78;;
81160;SDS011;70637;48.514;14.500;2024-01-15T07:54:44;18.95;;;7.22;;
81160;SDS011;70637;48.514;14.500;2024-01-15T07:57:10;17.70;;;6.80;;
81160;SDS011;70637;48.514;14.500;2024-01-15T07:59:36;17.35;;;6.82;;
81160;SDS011;70637;48.514;14.500;2024-01-15T08:02:02;15.77;;;6.40;;
81160;SDS011;70637;48.514;14.500;2024-01-15T08:04:27;16.73;;;6.85;;
81160;SDS011;70637;48.514;14.500;2024-01-15T08:06:53;18.92;;;6.55;;
81160;SDS011;70637;48.514;14.500;2024-01-15T08:09:19;16.85;;;6.20;;
81160;SDS011;70637;48.514;14.500;2024-01-15T08:11:45;15.82;;;6.75;;
81160;SDS011;70637;48.514;14.500;2024-01-15T08:14:10;15.13;;;5.65;;
81160;SDS011;70637;48.514;14.500;2024-01-15T08:16:37;15.88;;;6.55;;
81160;SDS011;70637;48.514;14.500;2024-01-15T08:19:03;18.08;;;6.43;;
81160;SDS011;70637;48.514;14.500;2024-01-15T08:21:29;14.55;;;6.03;;
81160;SDS011;70637;48.514;14.500;2024-01-15T08:23:57;14.25;;;6.63;;
81160;SDS011;70637;48.514;14.500;2024-01-15T08:26:23;17.27;;;6.57;;
81160;SDS011;70637;48.514;14.500;2024-01-15T08:28:49;13.43;;;5.85;;
81160;SDS011;70637;48.514;14.500;2024-01-15T08:31:15;12.75;;;6.40;;
81160;SDS011;70637;48.514;14.500;2024-01-15T08:33:41;16.88;;;6.38;;
81160;SDS011;70637;48.514;14.500;2024-01-15T08:36:06;12.40;;;5.45;;
81160;SDS011;70637;48.514;14.500;2024-01-15T08:38:32;13.35;;;6.00;;
81160;SDS011;70637;48.514;14.500;2024-01-15T08:40:58;13.82;;;6.47;;
81160;SDS011;70637;48.514;14.500;2024-01-15T08:43:25;11.60;;;5.63;;
81160;SDS011;70637;48.514;14.500;2024-01-15T08:45:51;15.32;;;5.78;;
81160;SDS011;70637;48.514;14.500;2024-01-15T08:48:17;15.30;;;5.88;;
81160;SDS011;70637;48.514;14.500;2024-01-15T08:50:43;14.25;;;6.05;;
81160;SDS011;70637;48.514;14.500;2024-01-15T08:53:11;13.13;;;5.55;;
81160;SDS011;70637;48.514;14.500;2024-01-15T08:55:37;13.73;;;5.25;;
81160;SDS011;70637;48.514;14.500;2024-01-15T08:58:03;12.90;;;5.65;;
81160;SDS011;70637;48.514;14.500;2024-01-15T09:00:28;13.40;;;5.82;;
81160;SDS011;70637;48.514;14.500;2024-01-15T09:02:55;11.07;;;5.07;;
81160;SDS011;70637;48.514;14.500;2024-01-15T09:05:21;11.88;;;5.57;;
81160;SDS011;70637;48.514;14.500;2024-01-15T09:07:47;13.88;;;5.68;;
81160;SDS011;70637;48.514;14.500;2024-01-15T09:10:13;11.10;;;5.50;;
81160;SDS011;70637;48.514;14.500;2024-01-15T09:12:39;11.63;;;5.28;;
81160;SDS011;70637;48.514;14.500;2024-01-15T09:15:04;12.10;;;4.93;;
81160;SDS011;70637;48.514;14.500;2024-01-15T09:17:32;12.20;;;5.32;;
81160;SDS011;70637;48.514;14.500;2024-01-15T09:19:58;12.50;;;5.78;;
81160;SDS011;70637;48.514;14.500;2024-01-15T09:22:23;10.70;;;5.13;;
81160;SDS011;70637;48.514;14.500;2024-01-15T09:24:49;9.65;;;5.07;;
81160;SDS011;70637;48.514;14.500;2024-01-15T09:27:15;11.85;;;5.30;;
81160;SDS011;70637;48.514;14.500;2024-01-15T09:29:41;11.02;;;5.18;;
81160;SDS011;70637;48.514;14.500;2024-01-15T09:32:08;10.60;;;4.40;;
81160;SDS011;70637;48.514;14.500;2024-01-15T09:34:34;9.85;;;4.47;;
81160;SDS011;70637;48.514;14.500;2024-01-15T09:37:00;11.18;;;4.88;;
81160;SDS011;70637;48.514;14.500;2024-01-15T09:39:26;14.85;;;5.63;;
81160;SDS011;70637;48.514;14.500;2024-01-15T09:41:52;11.88;;;5.50;;
81160;SDS011;70637;48.514;14.500;2024-01-15T09:44:19;13.02;;;5.07;;
81160;SDS011;70637;48.514;14.500;2024-01-15T09:46:46;12.00;;;4.97;;
81160;SDS011;70637;48.514;14.500;2024-01-15T09:49:15;11.25;;;4.72;;
81160;SDS011;70637;48.514;14.500;2024-01-15T09:51:42;9.13;;;4.35;;
81160;SDS011;70637;48.514;14.500;2024-01-15T09:54:08;10.07;;;4.65;;
81160;SDS011;70637;48.514;14.500;2024-01-15T09:56:34;11.20;;;4.55;;
81160;SDS011;70637;48.514;14.500;2024-01-15T09:59:03;10.38;;;4.40;;
81160;SDS011;70637;48.514;14.500;2024-01-15T10:01:32;9.77;;;5.05;;
81160;SDS011;70637;48.514;14.500;2024-01-15T10:03:59;11.52;;;4.63;;
81160;SDS011;70637;48.514;14.500;2024-01-15T10:06:26;10.57;;;4.22;;
81160;SDS011;70637;48.514;14.500;2024-01-15T10:08:56;9.48;;;4.25;;
81160;SDS011;70637;48.514;14.500;2024-01-15T10:11:25;8.30;;;4.28;;
81160;SDS011;70637;48.514;14.500;2024-01-15T10:13:51;9.18;;;4.45;;
81160;SDS011;70637;48.514;14.500;2024-01-15T10:16:21;8.80;;;4.00;;
81160;SDS011;70637;48.514;14.500;2024-01-15T10:18:47;7.10;;;4.20;;
81160;SDS011;70637;48.514;14.500;2024-01-15T10:21:14;8.63;;;3.97;;
81160;SDS011;70637;48.514;14.500;2024-01-15T10:23:40;9.50;;;4.28;;
81160;SDS011;70637;48.514;14.500;2024-01-15T10:26:06;7.97;;;3.65;;
81160;SDS011;70637;48.514;14.500;2024-01-15T10:28:32;8.55;;;4.00;;
81160;SDS011;70637;48.514;14.500;2024-01-15T10:30:58;8.32;;;4.13;;
81160;SDS011;70637;48.514;14.500;2024-01-15T10:33:25;8.93;;;4.40;;
81160;SDS011;70637;48.514;14.500;2024-01-15T10:35:53;6.43;;;3.53;;
81160;SDS011;70637;48.514;14.500;2024-01-15T10:38:23;7.38;;;3.67;;
81160;SDS011;70637;48.514;14.500;2024-01-15T10:40:53;7.40;;;3.28;;
81160;SDS011;70637;48.514;14.500;2024-01-15T10:43:19;7.97;;;3.42;;
81160;SDS011;70637;48.514;14.500;2024-01-15T10:45:46;7.85;;;3.15;;
81160;SDS011;70637;48.514;14.500;2024-01-15T10:48:13;6.63;;;3.10;;
81160;SDS011;70637;48.514;14.500;2024-01-15T10:50:39;7.47;;;3.03;;
81160;SDS011;70637;48.514;14.500;2024-01-15T10:53:05;5.05;;;2.83;;
81160;SDS011;70637;48.514;14.500;2024-01-15T10:55:32;6.10;;;2.90;;
81160;SDS011;70637;48.514;14.500;2024-01-15T10:58:00;5.57;;;3.13;;
81160;SDS011;70637;48.514;14.500;2024-01-15T11:00:27;5.35;;;2.63;;
81160;SDS011;70637;48.514;14.500;2024-01-15T11:02:52;6.78;;;2.90;;
81160;SDS011;70637;48.514;14.500;2024-01-15T11:05:21;6.32;;;2.90;;
81160;SDS011;70637;48.514;14.500;2024-01-15T11:07:50;8.88;;;2.72;;
81160;SDS011;70637;48.514;14.500;2024-01-15T11:13:19;7.20;;;2.73;;
81160;SDS011;70637;48.514;14.500;2024-01-15T11:15:58;6.10;;;2.80;;
81160;SDS011;70637;48.514;14.500;2024-01-15T11:18:31;5.90;;;2.80;;
81160;SDS011;70637;48.514;14.500;2024-01-15T11:23:57;6.03;;;2.55;;
81160;SDS011;70637;48.514;14.500;2024-01-15T11:29:05;4.88;;;2.67;;
81160;SDS011;70637;48.514;14.500;2024-01-15T11:34:07;6.82;;;2.67;;
81160;SDS011;70637;48.514;14.500;2024-01-15T11:40:00;4.75;;;2.40;;
81160;SDS011;70637;48.514;14.500;2024-01-15T11:42:04;4.80;;;2.53;;
81160;SDS011;70637;48.514;14.500;2024-01-15T11:44:30;4.90;;;2.70;;
81160;SDS011;70637;48.514;14.500;2024-01-15T11:46:59;4.25;;;2.35;;
81160;SDS011;70637;48.514;14.500;2024-01-15T11:52:31;5.13;;;2.53;;
81160;SDS011;70637;48.514;14.500;2024-01-15T11:55:11;4.18;;;2.50;;
81160;SDS011;70637;48.514;14.500;2024-01-15T11:58:00;7.40;;;2.70;;
81160;SDS011;70637;48.514;14.500;2024-01-15T12:00:26;5.40;;;2.90;;
81160;SDS011;70637;48.514;14.500;2024-01-15T12:02:53;4.50;;;2.70;;
81160;SDS011;70637;48.514;14.500;2024-01-15T12:05:19;6.60;;;2.97;;
81160;SDS011;70637;48.514;14.500;2024-01-15T12:07:46;4.80;;;3.03;;
81160;SDS011;70637;48.514;14.500;2024-01-15T12:10:14;7.18;;;3.35;;
81160;SDS011;70637;48.514;14.500;2024-01-15T12:12:57;5.82;;;2.80;;
81160;SDS011;70637;48.514;14.500;2024-01-15T12:17:57;4.95;;;2.70;;
81160;SDS011;70637;48.514;14.500;2024-01-15T12:20:25;5.65;;;3.00;;
81160;SDS011;70637;48.514;14.500;2024-01-15T12:22:51;5.40;;;2.88;;
81160;SDS011;70637;48.514;14.500;2024-01-15T12:25:17;5.88;;;2.95;;
81160;SDS011;70637;48.514;14.500;2024-01-15T12:27:43;4.72;;;2.95;;
81160;SDS011;70637;48.514;14.500;2024-01-15T12:30:15;6.00;;;2.40;;
81160;SDS011;70637;48.514;14.500;2024-01-15T12:32:41;7.10;;;2.80;;
81160;SDS011;70637;48.514;14.500;2024-01-15T12:35:07;4.28;;;2.35;;
81160;SDS011;70637;48.514;14.500;2024-01-15T12:37:35;6.15;;;3.13;;
81160;SDS011;70637;48.514;14.500;2024-01-15T12:40:02;4.60;;;2.45;;
81160;SDS011;70637;48.514;14.500;2024-01-15T12:42:31;4.78;;;2.50;;
81160;SDS011;70637;48.514;14.500;2024-01-15T12:45:00;4.15;;;2.53;;
81160;SDS011;70637;48.514;14.500;2024-01-15T12:47:26;8.02;;;3.08;;
81160;SDS011;70637;48.514;14.500;2024-01-15T12:49:54;6.90;;;3.00;;
81160;SDS011;70637;48.514;14.500;2024-01-15T12:52:20;4.55;;;2.55;;
81160;SDS011;70637;48.514;14.500;2024-01-15T12:54:49;6.18;;;2.35;;
81160;SDS011;70637;48.514;14.500;2024-01-15T12:57:15;5.45;;;2.50;;
81160;SDS011;70637;48.514;14.500;2024-01-15T12:59:42;5.20;;;2.40;;
81160;SDS011;70637;48.514;14.500;2024-01-15T13:02:09;5.22;;;2.58;;
81160;SDS011;70637;48.514;14.500;2024-01-15T13:04:35;5.20;;;2.70;;
81160;SDS011;70637;48.514;14.500;2024-01-15T13:07:01;5.53;;;2.28;;
81160;SDS011;70637;48.514;14.500;2024-01-15T13:09:27;5.75;;;2.65;;
81160;SDS011;70637;48.514;14.500;2024-01-15T13:11:53;5.68;;;2.38;;
81160;SDS011;70637;48.514;14.500;2024-01-15T13:14:19;5.40;;;2.30;;
81160;SDS011;70637;48.514;14.500;2024-01-15T13:16:44;5.10;;;2.63;;
81160;SDS011;70637;48.514;14.500;2024-01-15T13:19:10;4.80;;;2.38;;
81160;SDS011;70637;48.514;14.500;2024-01-15T13:21:37;6.55;;;2.35;;
81160;SDS011;70637;48.514;14.500;2024-01-15T13:24:07;4.82;;;2.22;;
81160;SDS011;70637;48.514;14.500;2024-01-15T13:26:33;6.60;;;2.42;;
81160;SDS011;70637;48.514;14.500;2024-01-15T13:29:00;4.13;;;2.10;;
81160;SDS011;70637;48.514;14.500;2024-01-15T13:31:26;4.18;;;2.13;;
81160;SDS011;70637;48.514;14.500;2024-01-15T13:33:53;4.28;;;2.47;;
81160;SDS011;70637;48.514;14.500;2024-01-15T13:36:20;5.88;;;2.20;;
81160;SDS011;70637;48.514;14.500;2024-01-15T13:38:46;6.70;;;2.30;;
81160;SDS011;70637;48.514;14.500;2024-01-15T13:41:12;5.13;;;2.33;;
81160;SDS011;70637;48.514;14.500;2024-01-15T13:43:37;6.05;;;2.40;;
81160;SDS011;70637;48.514;14.500;2024-01-15T13:46:03;7.25;;;2.25;;
81160;SDS011;70637;48.514;14.500;2024-01-15T13:48:30;3.88;;;2.17;;
81160;SDS011;70637;48.514;14.500;2024-01-15T13:50:57;5.20;;;2.40;;
81160;SDS011;70637;48.514;14.500;2024-01-15T13:53:23;4.95;;;2.30;;
81160;SDS011;70637;48.514;14.500;2024-01-15T13:55:48;4.25;;;1.73;;
81160;SDS011;70637;48.514;14.500;2024-01-15T13:58:14;6.65;;;2.30;;
81160;SDS011;70637;48.514;14.500;2024-01-15T14:00:39;4.78;;;1.75;;
81160;SDS011;70637;48.514;14.500;2024-01-15T14:03:05;5.30;;;2.38;;
81160;SDS011;70637;48.514;14.500;2024-01-15T14:05:31;2.72;;;1.90;;
81160;SDS011;70637;48.514;14.500;2024-01-15T14:07:57;3.92;;;1.95;;
81160;SDS011;70637;48.514;14.500;2024-01-15T14:10:23;3.10;;;1.92;;
81160;SDS011;70637;48.514;14.500;2024-01-15T14:12:49;2.83;;;1.73;;
81160;SDS011;70637;48.514;14.500;2024-01-15T14:15:15;3.78;;;1.63;;
81160;SDS011;70637;48.514;14.500;2024-01-15T14:17:40;6.97;;;2.03;;
81160;SDS011;70637;48.514;14.500;2024-01-15T14:20:06;4.05;;;1.95;;
81160;SDS011;70637;48.514;14.500;2024-01-15T14:22:34;4.93;;;2.00;;
81160;SDS011;70637;48.514;14.500;2024-01-15T14:25:00;5.97;;;2.00;;
81160;SDS011;70637;48.514;14.500;2024-01-15T14:27:26;4.13;;;1.95;;
81160;SDS011;70637;48.514;14.500;2024-01-15T14:29:51;3.47;;;1.88;;
81160;SDS011;70637;48.514;14.500;2024-01-15T14:32:17;3.67;;;1.92;;
81160;SDS011;70637;48.514;14.500;2024-01-15T14:34:43;2.95;;;1.83;;
81160;SDS011;70637;48.514;14.500;2024-01-15T14:37:09;4.15;;;1.98;;
81160;SDS011;70637;48.514;14.500;2024-01-15T14:39:34;4.60;;;2.10;;
81160;SDS011;70637;48.514;14.500;2024-01-15T14:42:01;5.03;;;2.03;;
81160;SDS011;70637;48.514;14.500;2024-01-15T14:44:26;4.60;;;2.00;;
81160;SDS011;70637;48.514;14.500;2024-01-15T14:46:53;3.97;;;1.92;;
81160;SDS011;70637;48.514;14.500;2024-01-15T14:49:21;6.00;;;2.38;;